Time;durP1;ratioP1;P1;durP2;ratioP2;P2;SDS_P1;SDS_P2;PMS_P1;PMS_P2;Temp;Humidity;BMP_temperature;BMP_pressure;BME280_temperature;BME280_humidity;BME280_pressure;Samples;Min_cycle;Max_cycle;Signal;HPM_P1;HPM_P2
2024/04/20 00:00:24;;;;;;;2.28;0.82;;;;;;;;;;5380643;26;20004;-61
2024/04/20 00:02:51;;;;;;;2.83;1.42;;;;;;;;;;5347270;26;20005;-61
2024/04/20 00:05:20;;;;;;;4.88;1.40;;;;;;;;;;5345696;26;20016;-61
2024/04/20 00:07:47;;;;;;;1.70;0.90;;;;;;;;;;5364919;26;20001;-61
2024/04/20 00:10:14;;;;;;;0.88;0.80;;;;;;;;;;5363435;26;20082;-61
2024/04/20 00:12:40;;;;;;;6.75;2.95;;;;;;;;;;5368156;26;20008;-61
2024/04/20 00:15:07;;;;;;;9.40;1.03;;;;;;;;;;5377531;26;20001;-61
2024/04/20 00:17:33;;;;;;;3.42;1.00;;;;;;;;;;5345318;26;20013;-61
2024/04/20 00:20:00;;;;;;;2.13;1.20;;;;;;;;;;5350758;26;20010;-61
2024/04/20 00:22:26;;;;;;;3.42;1.30;;;;;;;;;;5377123;26;20808;-61
2024/04/20 00:24:52;;;;;;;3.63;0.82;;;;;;;;;;5378290;26;20457;-61
2024/04/20 00:27:21;;;;;;;2.55;0.93;;;;;;;;;;5358100;26;20015;-61
2024/04/20 00:29:47;;;;;;;4.07;1.25;;;;;;;;;;5380042;26;19996;-61
2024/04/20 00:32:14;;;;;;;1.55;0.95;;;;;;;;;;5359465;26;20000;-61
2024/04/20 00:34:40;;;;;;;2.30;1.23;;;;;;;;;;5372862;26;20004;-61
2024/04/20 00:37:06;;;;;;;1.73;1.00;;;;;;;;;;5347391;26;20132;-61
2024/04/20 00:39:33;;;;;;;1.30;1.20;;;;;;;;;;5345361;26;19997;-61
2024/04/20 00:41:59;;;;;;;3.03;1.23;;;;;;;;;;5366936;26;20390;-61
2024/04/20 00:44:25;;;;;;;6.43;1.83;;;;;;;;;;5378400;26;19996;-61
2024/04/20 00:47:01;;;;;;;2.22;1.10;;;;;;;;;;5374818;26;20011;-61
2024/04/20 00:49:28;;;;;;;3.55;1.30;;;;;;;;;;5378281;26;20352;-61
2024/04/20 00:51:54;;;;;;;;;;;;;;;;;;5368050;26;20052;-61
2024/04/20 00:54:21;;;;;;;2.13;1.50;;;;;;;;;;5350516;26;19926;-61
2024/04/20 00:56:47;;;;;;;3.35;1.17;;;;;;;;;;5374931;26;20008;-61
2024/04/20 00:59:14;;;;;;;2.70;1.60;;;;;;;;;;5361008;26;19996;-61
2024/04/20 01:01:40;;;;;;;1.92;1.20;;;;;;;;;;5379619;26;20000;-61
2024/04/20 01:04:07;;;;;;;1.75;0.88;;;;;;;;;;5348907;26;20001;-61
2024/04/20 01:06:33;;;;;;;4.22;1.13;;;;;;;;;;5344975;26;20437;-61
2024/04/20 01:09:00;;;;;;;3.47;1.40;;;;;;;;;;5344943;26;20002;-61
2024/04/20 01:11:26;;;;;;;4.00;1.33;;;;;;;;;;5368767;26;20012;-61
2024/04/20 01:13:52;;;;;;;3.65;1.50;;;;;;;;;;5369788;26;20337;-61
2024/04/20 01:16:19;;;;;;;1.20;1.10;;;;;;;;;;5361090;26;20001;-61
2024/04/20 01:18:45;;;;;;;3.03;1.20;;;;;;;;;;5343349;26;20005;-61
2024/04/20 01:21:12;;;;;;;1.45;1.17;;;;;;;;;;5342630;26;20001;-61
2024/04/20 01:23:38;;;;;;;;;;;;;;;;;;5351905;26;20005;-61
2024/04/20 01:26:05;;;;;;;2.17;1.27;;;;;;;;;;5387162;26;19950;-61
2024/04/20 01:28:31;;;;;;;2.78;1.40;;;;;;;;;;5357301;26;20004;-61
2024/04/20 01:31:05;;;;;;;1.60;1.48;;;;;;;;;;5348001;26;20012;-61
2024/04/20 01:33:32;;;;;;;2.72;1.35;;;;;;;;;;5383222;26;20008;-61
2024/04/20 01:35:58;;;;;;;3.35;1.38;;;;;;;;;;5381249;26;20015;-61
2024/04/20 01:38:25;;;;;;;1.97;1.30;;;;;;;;;;5382808;26;20007;-61
2024/04/20 01:40:52;;;;;;;1.83;1.20;;;;;;;;;;5382209;26;20422;-61
2024/04/20 01:43:19;;;;;;;2.33;1.92;;;;;;;;;;5375730;26;20000;-61
2024/04/20 01:45:45;;;;;;;1.75;1.27;;;;;;;;;;5365875;26;20040;-61
2024/04/20 01:48:11;;;;;;;4.88;1.67;;;;;;;;;;5382437;26;20059;-61
2024/04/20 01:50:37;;;;;;;2.22;1.67;;;;;;;;;;5381801;26;20329;-61
2024/04/20 01:53:04;;;;;;;2.53;1.40;;;;;;;;;;5381425;26;19996;-61
2024/04/20 01:55:31;;;;;;;1.85;1.27;;;;;;;;;;5377197;26;20005;-61
2024/04/20 01:57:57;;;;;;;3.30;1.40;;;;;;;;;;5367621;26;20357;-61
2024/04/20 02:00:23;;;;;;;2.03;1.30;;;;;;;;;;5349685;26;20021;-61
2024/04/20 02:02:49;;;;;;;1.60;1.23;;;;;;;;;;5380934;26;20000;-61
2024/04/20 02:05:16;;;;;;;4.60;2.40;;;;;;;;;;5379004;26;20000;-61
2024/04/20 02:07:42;;;;;;;1.80;1.23;;;;;;;;;;5347864;26;20357;-61
2024/04/20 02:10:08;;;;;;;1.03;0.93;;;;;;;;;;5367230;26;20001;-61
2024/04/20 02:12:35;;;;;;;2.97;1.50;;;;;;;;;;5346088;26;19997;-61
2024/04/20 02:15:01;;;;;;;2.20;1.50;;;;;;;;;;5366975;26;20248;-61
2024/04/20 02:17:27;;;;;;;2.80;1.20;;;;;;;;;;5347421;26;20000;-61
2024/04/20 02:19:53;;;;;;;5.22;1.42;;;;;;;;;;5345623;26;20020;-60
2024/04/20 02:22:19;;;;;;;1.83;1.30;;;;;;;;;;5354292;26;20016;-61
2024/04/20 02:24:46;;;;;;;3.38;1.40;;;;;;;;;;5379087;26;20001;-61
2024/04/20 02:27:12;;;;;;;1.83;1.40;;;;;;;;;;5380150;26;20017;-61
2024/04/20 02:29:38;;;;;;;1.35;1.25;;;;;;;;;;5366130;26;20035;-61
2024/04/20 02:32:04;;;;;;;1.70;1.60;;;;;;;;;;5353308;26;20016;-61
2024/04/20 02:34:31;;;;;;;6.00;1.80;;;;;;;;;;5347909;26;20053;-61
2024/04/20 02:37:10;;;;;;;1.85;1.58;;;;;;;;;;5357916;26;20019;-61
2024/04/20 02:39:37;;;;;;;3.75;1.50;;;;;;;;;;5363718;26;20026;-61
2024/04/20 02:42:03;;;;;;;5.07;1.60;;;;;;;;;;5348106;26;20001;-61
2024/04/20 02:44:30;;;;;;;3.58;1.50;;;;;;;;;;5346889;26;20020;-61
2024/04/20 02:46:56;;;;;;;2.28;1.50;;;;;;;;;;5364609;26;20025;-61
2024/04/20 02:49:23;;;;;;;3.53;1.80;;;;;;;;;;5346636;26;20036;-61
2024/04/20 02:51:49;;;;;;;1.90;1.50;;;;;;;;;;5366729;26;20238;-61
2024/04/20 02:54:16;;;;;;;4.20;2.63;;;;;;;;;;5378596;26;20014;-60
2024/04/20 02:56:43;;;;;;;4.68;1.60;;;;;;;;;;5356518;26;20033;-60
2024/04/20 02:59:09;;;;;;;2.38;1.67;;;;;;;;;;5344532;26;20001;-61
2024/04/20 03:01:35;;;;;;;3.25;1.45;;;;;;;;;;5371804;26;20020;-60
2024/04/20 03:04:02;;;;;;;2.53;1.40;;;;;;;;;;5364132;26;20045;-61
2024/04/20 03:06:28;;;;;;;4.30;1.40;;;;;;;;;;5381591;26;20016;-61
2024/04/20 03:08:54;;;;;;;3.08;1.20;;;;;;;;;;5380958;26;19997;-61
2024/04/20 03:11:21;;;;;;;3.03;1.42;;;;;;;;;;5376969;26;20012;-61
2024/04/20 03:13:50;;;;;;;4.55;1.80;;;;;;;;;;5377142;26;20003;-61
2024/04/20 03:16:19;;;;;;;7.80;2.13;;;;;;;;;;5361989;26;20020;-61
2024/04/20 03:18:46;;;;;;;2.53;1.58;;;;;;;;;;5367701;26;20004;-61
2024/04/20 03:21:12;;;;;;;8.68;1.95;;;;;;;;;;5344423;26;20001;-61
2024/04/20 03:23:38;;;;;;;2.58;1.33;;;;;;;;;;5362252;26;20280;-61
2024/04/20 03:26:05;;;;;;;3.45;1.50;;;;;;;;;;5363917;26;20357;-60
2024/04/20 03:28:31;;;;;;;3.13;2.38;;;;;;;;;;5345965;26;20021;-61
2024/04/20 03:30:57;;;;;;;2.45;2.22;;;;;;;;;;5358248;26;20004;-61
2024/04/20 03:33:28;;;;;;;2.35;1.58;;;;;;;;;;5381247;26;19996;-61
2024/04/20 03:35:56;;;;;;;4.32;1.75;;;;;;;;;;5367598;26;20100;-60
2024/04/20 03:38:22;;;;;;;2.20;1.67;;;;;;;;;;5348077;26;20462;-61
2024/04/20 03:40:48;;;;;;;4.38;1.60;;;;;;;;;;5346137;26;20449;-61
2024/04/20 03:43:14;;;;;;;3.00;1.73;;;;;;;;;;5348300;26;20056;-61
2024/04/20 03:45:41;;;;;;;1.65;1.40;;;;;;;;;;5365996;26;20020;-61
2024/04/20 03:48:07;;;;;;;6.50;2.40;;;;;;;;;;5344139;26;20481;-61
2024/04/20 03:50:33;;;;;;;4.83;1.90;;;;;;;;;;5352428;26;20015;-60
2024/04/20 03:53:01;;;;;;;5.70;1.93;;;;;;;;;;5378282;26;20000;-60
2024/04/20 03:55:27;;;;;;;2.80;1.98;;;;;;;;;;5353940;26;20231;-57
2024/04/20 03:57:54;;;;;;;6.15;2.03;;;;;;;;;;5345510;26;20009;-62
2024/04/20 04:00:20;;;;;;;6.35;1.77;;;;;;;;;;5342557;26;20007;-62
2024/04/20 04:02:46;;;;;;;3.13;1.83;;;;;;;;;;5344106;26;20070;-63
2024/04/20 04:05:12;;;;;;;4.75;1.75;;;;;;;;;;5345745;26;20013;-62
2024/04/20 04:07:38;;;;;;;4.77;3.13;;;;;;;;;;5343867;26;20070;-63
2024/04/20 04:10:05;;;;;;;2.00;1.58;;;;;;;;;;5343614;26;20008;-62
2024/04/20 04:12:31;;;;;;;6.35;2.50;;;;;;;;;;5343716;26;20001;-62
2024/04/20 04:14:57;;;;;;;3.10;2.15;;;;;;;;;;5343608;26;19997;-62
2024/04/20 04:17:23;;;;;;;5.70;2.05;;;;;;;;;;5346332;26;20041;-62
2024/04/20 04:19:49;;;;;;;5.97;1.90;;;;;;;;;;5345457;26;20031;-62
2024/04/20 04:22:16;;;;;;;3.47;1.70;;;;;;;;;;5345636;26;20067;-62
2024/04/20 04:24:42;;;;;;;4.18;1.80;;;;;;;;;;5344262;26;20038;-62
2024/04/20 04:27:16;;;;;;;7.43;3.22;;;;;;;;;;5344447;26;20078;-62
2024/04/20 04:29:42;;;;;;;4.97;1.95;;;;;;;;;;5345203;26;20021;-62
2024/04/20 04:32:09;;;;;;;4.70;2.00;;;;;;;;;;5345433;26;20004;-62
2024/04/20 04:34:37;;;;;;;6.70;2.42;;;;;;;;;;5345296;26;20020;-62
2024/04/20 04:37:04;;;;;;;6.45;2.08;;;;;;;;;;5345137;26;19997;-61
2024/04/20 04:39:31;;;;;;;4.57;1.88;;;;;;;;;;5345031;26;20362;-62
2024/04/20 04:41:58;;;;;;;6.93;2.47;;;;;;;;;;5343353;26;19997;-62
2024/04/20 04:44:24;;;;;;;3.67;1.50;;;;;;;;;;5343290;26;20023;-62
2024/04/20 04:46:50;;;;;;;10.50;3.05;;;;;;;;;;5343404;26;20005;-62
2024/04/20 04:49:16;;;;;;;10.95;3.08;;;;;;;;;;5345576;26;20004;-61
2024/04/20 04:51:42;;;;;;;5.20;2.30;;;;;;;;;;5345251;26;20088;-62
2024/04/20 04:54:10;;;;;;;6.20;2.58;;;;;;;;;;5344985;26;20075;-62
2024/04/20 04:56:36;;;;;;;6.88;3.03;;;;;;;;;;5342379;26;20008;-62
2024/04/20 04:59:06;;;;;;;5.85;1.98;;;;;;;;;;5344189;26;20012;-61
2024/04/20 05:01:33;;;;;;;3.80;2.00;;;;;;;;;;5345096;26;20005;-61
2024/04/20 05:03:59;;;;;;;5.53;1.73;;;;;;;;;;5345123;26;19997;-62
2024/04/20 05:06:27;;;;;;;4.25;1.80;;;;;;;;;;5344936;26;20001;-62
2024/04/20 05:08:53;;;;;;;4.00;2.42;;;;;;;;;;5342612;26;20003;-62
2024/04/20 05:11:19;;;;;;;8.40;2.22;;;;;;;;;;5343024;26;19993;-62
2024/04/20 05:13:45;;;;;;;5.30;2.03;;;;;;;;;;5345068;26;20082;-61
2024/04/20 05:16:12;;;;;;;4.25;2.10;;;;;;;;;;5344870;26;20539;-62
2024/04/20 05:18:38;;;;;;;5.50;2.03;;;;;;;;;;5344860;26;20446;-62
2024/04/20 05:21:04;;;;;;;3.00;1.90;;;;;;;;;;5342913;26;20007;-62
2024/04/20 05:23:30;;;;;;;4.22;2.25;;;;;;;;;;5344819;26;20042;-61
2024/04/20 05:25:57;;;;;;;5.45;1.90;;;;;;;;;;5344355;26;20008;-62
2024/04/20 05:28:24;;;;;;;4.68;2.03;;;;;;;;;;5344326;26;20013;-62
2024/04/20 05:30:50;;;;;;;3.90;2.50;;;;;;;;;;5344647;26;19993;-62
2024/04/20 05:33:17;;;;;;;4.75;2.42;;;;;;;;;;5344744;26;20516;-61
2024/04/20 05:35:43;;;;;;;6.23;2.10;;;;;;;;;;5344330;26;20016;-62
2024/04/20 05:38:09;;;;;;;20.10;3.35;;;;;;;;;;5344424;26;20008;-61
2024/04/20 05:40:39;;;;;;;4.63;2.27;;;;;;;;;;5343725;26;20012;-62
2024/04/20 05:43:05;;;;;;;4.82;1.83;;;;;;;;;;5344177;26;20011;-62
2024/04/20 05:45:32;;;;;;;5.45;2.20;;;;;;;;;;5344489;26;20004;-65
2024/04/20 05:47:58;;;;;;;4.22;2.58;;;;;;;;;;5342221;26;19997;-63
2024/04/20 05:50:24;;;;;;;5.57;2.15;;;;;;;;;;5341898;26;20431;-63
2024/04/20 05:52:50;;;;;;;3.58;1.95;;;;;;;;;;5342048;26;20029;-63
2024/04/20 05:55:16;;;;;;;3.72;2.42;;;;;;;;;;5344023;26;19997;-64
2024/04/20 05:57:43;;;;;;;9.13;2.95;;;;;;;;;;5342512;26;19997;-64
2024/04/20 06:00:09;;;;;;;7.13;2.35;;;;;;;;;;5343789;26;20001;-64
2024/04/20 06:02:38;;;;;;;5.10;2.53;;;;;;;;;;5343800;26;19997;-63
2024/04/20 06:05:05;;;;;;;6.80;2.30;;;;;;;;;;5341968;26;20074;-64
2024/04/20 06:07:32;;;;;;;3.50;2.15;;;;;;;;;;5343824;26;19997;-64
2024/04/20 06:09:58;;;;;;;8.52;2.95;;;;;;;;;;5346361;26;20094;-65
2024/04/20 06:12:24;;;;;;;7.20;2.63;;;;;;;;;;5347535;26;20007;-64
2024/04/20 06:14:51;;;;;;;7.10;3.07;;;;;;;;;;5347269;26;20001;-64
2024/04/20 06:17:17;;;;;;;6.27;2.80;;;;;;;;;;5345663;26;19997;-64
2024/04/20 06:19:44;;;;;;;6.50;3.72;;;;;;;;;;5347121;26;20011;-65
2024/04/20 06:22:10;;;;;;;11.32;4.22;;;;;;;;;;5347644;26;20004;-64
2024/04/20 06:24:37;;;;;;;10.43;4.32;;;;;;;;;;5375109;26;19997;-63
2024/04/20 06:27:04;;;;;;;7.85;3.90;;;;;;;;;;5347331;26;20001;-64
2024/04/20 06:29:30;;;;;;;14.77;4.40;;;;;;;;;;5345022;26;20468;-64
2024/04/20 06:31:56;;;;;;;9.47;4.83;;;;;;;;;;5347525;26;19993;-64
2024/04/20 06:34:24;;;;;;;16.38;4.97;;;;;;;;;;5345442;26;20071;-64
2024/04/20 06:36:50;;;;;;;8.63;4.65;;;;;;;;;;5346695;26;19997;-65
2024/04/20 06:39:17;;;;;;;5.93;4.90;;;;;;;;;;5346786;26;20335;-63
2024/04/20 06:41:43;;;;;;;9.85;5.72;;;;;;;;;;5346899;26;20011;-64
2024/04/20 06:44:09;;;;;;;11.65;4.18;;;;;;;;;;5346931;26;20481;-63
2024/04/20 06:46:35;;;;;;;11.83;4.50;;;;;;;;;;5347074;26;20008;-64
2024/04/20 06:49:02;;;;;;;5.20;3.80;;;;;;;;;;5346398;26;20007;-64
2024/04/20 06:51:29;;;;;;;4.70;3.55;;;;;;;;;;5346642;26;20004;-64
2024/04/20 06:53:55;;;;;;;5.82;3.85;;;;;;;;;;5346590;26;20007;-64
2024/04/20 06:56:23;;;;;;;6.07;4.25;;;;;;;;;;5345120;26;19996;-65
2024/04/20 06:58:49;;;;;;;6.90;3.78;;;;;;;;;;5346266;26;20481;-65
2024/04/20 07:01:15;;;;;;;8.32;3.45;;;;;;;;;;5344713;26;20015;-64
2024/04/20 07:03:41;;;;;;;7.32;4.38;;;;;;;;;;5346448;26;20021;-64
2024/04/20 07:06:07;;;;;;;6.97;4.43;;;;;;;;;;5344757;26;20013;-64
2024/04/20 07:08:34;;;;;;;10.02;4.13;;;;;;;;;;5346412;26;19993;-64
2024/04/20 07:11:07;;;;;;;8.50;3.35;;;;;;;;;;5344470;26;20089;-64
2024/04/20 07:13:40;;;;;;;9.18;4.88;;;;;;;;;;5346716;26;20539;-65
2024/04/20 07:16:07;;;;;;;9.40;5.05;;;;;;;;;;5346540;26;20282;-64
2024/04/20 07:18:33;;;;;;;10.85;4.15;;;;;;;;;;5346169;26;20357;-63
2024/04/20 07:21:06;;;;;;;6.17;3.50;;;;;;;;;;5344939;26;20028;-64
2024/04/20 07:23:33;;;;;;;5.75;3.45;;;;;;;;;;5346790;26;19993;-64
2024/04/20 07:26:00;;;;;;;5.50;3.55;;;;;;;;;;5346181;26;20028;-64
2024/04/20 07:28:26;;;;;;;9.45;3.33;;;;;;;;;;5345951;26;20011;-65
2024/04/20 07:30:52;;;;;;;10.00;3.40;;;;;;;;;;5345780;26;20001;-56
2024/04/20 07:33:19;;;;;;;4.63;3.15;;;;;;;;;;5346072;26;20286;-58
2024/04/20 07:35:45;;;;;;;9.43;3.80;;;;;;;;;;5344419;26;20037;-59
2024/04/20 07:38:11;;;;;;;3.72;2.90;;;;;;;;;;5346131;26;20012;-56
2024/04/20 07:40:37;;;;;;;9.40;3.45;;;;;;;;;;5346057;26;20458;-61
2024/04/20 07:43:04;;;;;;;4.27;3.20;;;;;;;;;;5344564;26;20013;-61
2024/04/20 07:45:30;;;;;;;6.80;2.80;;;;;;;;;;5344392;26;19997;-61
2024/04/20 07:47:56;;;;;;;6.78;3.38;;;;;;;;;;5346109;26;20007;-61
2024/04/20 07:50:22;;;;;;;5.30;3.60;;;;;;;;;;5344185;26;20028;-61
2024/04/20 07:52:49;;;;;;;6.38;3.25;;;;;;;;;;5346132;26;20001;-60
2024/04/20 07:55:19;;;;;;;6.28;2.95;;;;;;;;;;5344360;26;20015;-61
2024/04/20 07:57:45;;;;;;;4.75;3.35;;;;;;;;;;5345894;26;19997;-61
2024/04/20 08:00:11;;;;;;;7.97;3.87;;;;;;;;;;5343794;26;20037;-61
2024/04/20 08:02:38;;;;;;;3.50;2.80;;;;;;;;;;5346074;26;20691;-61
2024/04/20 08:05:06;;;;;;;7.57;4.07;;;;;;;;;;5345957;26;20001;-60
2024/04/20 08:07:32;;;;;;;7.47;2.65;;;;;;;;;;5345598;26;20460;-61
2024/04/20 08:09:58;;;;;;;5.07;2.50;;;;;;;;;;5345437;26;20078;-60
2024/04/20 08:12:25;;;;;;;4.70;3.08;;;;;;;;;;5345847;26;20015;-61
2024/04/20 08:14:51;;;;;;;5.37;3.33;;;;;;;;;;5346009;26;20079;-61
2024/04/20 08:17:17;;;;;;;7.03;3.53;;;;;;;;;;5344185;26;20001;-61
2024/04/20 08:19:45;;;;;;;4.38;2.83;;;;;;;;;;5344109;26;20434;-60
2024/04/20 08:22:11;;;;;;;6.38;2.63;;;;;;;;;;5345690;26;20051;-61
2024/04/20 08:24:38;;;;;;;8.05;3.95;;;;;;;;;;5343918;26;20040;-61
2024/04/20 08:27:04;;;;;;;11.77;4.20;;;;;;;;;;5346028;26;20070;-61
2024/04/20 08:29:31;;;;;;;4.30;2.72;;;;;;;;;;5345272;26;20001;-62
2024/04/20 08:31:57;;;;;;;5.63;3.05;;;;;;;;;;5345659;26;20001;-61
2024/04/20 08:34:23;;;;;;;8.48;4.53;;;;;;;;;;5345781;26;20457;-61
2024/04/20 08:36:49;;;;;;;6.55;3.25;;;;;;;;;;5343548;26;20012;-60
2024/04/20 08:39:16;;;;;;;8.52;4.65;;;;;;;;;;5345162;26;20001;-61
2024/04/20 08:41:46;;;;;;;7.35;4.10;;;;;;;;;;5345103;26;20066;-61
2024/04/20 08:44:16;;;;;;;7.80;3.55;;;;;;;;;;5343834;26;20037;-62
2024/04/20 08:46:43;;;;;;;4.20;3.17;;;;;;;;;;5345451;26;20001;-62
2024/04/20 08:49:10;;;;;;;6.88;3.47;;;;;;;;;;5344668;26;19993;-61
2024/04/20 08:51:36;;;;;;;4.90;3.27;;;;;;;;;;5344976;26;20396;-62
2024/04/20 08:54:05;;;;;;;8.53;3.80;;;;;;;;;;5344946;26;20456;-62
2024/04/20 08:56:33;;;;;;;7.75;3.55;;;;;;;;;;5343486;26;20247;-61
2024/04/20 08:58:59;;;;;;;8.85;3.30;;;;;;;;;;5344719;26;20457;-62
2024/04/20 09:01:26;;;;;;;5.45;3.00;;;;;;;;;;5345268;26;19997;-61
2024/04/20 09:03:53;;;;;;;4.93;3.35;;;;;;;;;;5343474;26;20012;-61
2024/04/20 09:06:20;;;;;;;4.40;2.40;;;;;;;;;;5342948;26;20009;-61
2024/04/20 09:08:46;;;;;;;5.53;3.67;;;;;;;;;;5344891;26;20066;-61
2024/04/20 09:11:13;;;;;;;6.60;3.58;;;;;;;;;;5344997;26;20041;-61
2024/04/20 09:13:39;;;;;;;6.82;3.38;;;;;;;;;;5345133;26;20005;-62
2024/04/20 09:16:07;;;;;;;6.03;3.47;;;;;;;;;;5345238;26;20075;-61
2024/04/20 09:18:33;;;;;;;9.45;4.15;;;;;;;;;;5344535;26;20037;-61
2024/04/20 09:20:59;;;;;;;5.72;3.38;;;;;;;;;;5342595;26;20458;-61
2024/04/20 09:23:25;;;;;;;13.45;3.97;;;;;;;;;;5344286;26;19993;-62
2024/04/20 09:25:52;;;;;;;6.43;3.73;;;;;;;;;;5343030;26;20032;-62
2024/04/20 09:28:18;;;;;;;6.57;3.58;;;;;;;;;;5344445;26;19997;-60
2024/04/20 09:30:50;;;;;;;7.93;3.80;;;;;;;;;;5342584;26;20441;-61
2024/04/20 09:33:17;;;;;;;12.57;3.80;;;;;;;;;;5344771;26;20275;-61
2024/04/20 09:35:43;;;;;;;6.60;3.83;;;;;;;;;;5344155;26;20066;-61
2024/04/20 09:38:12;;;;;;;5.25;3.70;;;;;;;;;;5344479;26;20047;-61
2024/04/20 09:40:38;;;;;;;5.50;3.75;;;;;;;;;;5343826;26;20020;-62
2024/04/20 09:43:06;;;;;;;4.68;3.50;;;;;;;;;;5344394;26;20001;-61
2024/04/20 09:45:36;;;;;;;5.80;3.35;;;;;;;;;;5347868;26;19997;-61
2024/04/20 09:48:06;;;;;;;5.90;3.92;;;;;;;;;;5347681;26;19997;-61
2024/04/20 09:50:32;;;;;;;7.53;4.45;;;;;;;;;;5347361;26;20007;-61
2024/04/20 09:53:02;;;;;;;11.03;4.63;;;;;;;;;;5347631;26;19996;-61
2024/04/20 09:55:34;;;;;;;7.25;3.90;;;;;;;;;;5348012;26;20067;-61
2024/04/20 09:58:02;;;;;;;6.85;4.03;;;;;;;;;;5347526;26;20075;-60
2024/04/20 10:00:32;;;;;;;5.78;4.25;;;;;;;;;;5346976;26;20009;-60
2024/04/20 10:02:59;;;;;;;8.95;5.28;;;;;;;;;;5345934;26;20015;-60
2024/04/20 10:05:25;;;;;;;6.93;4.22;;;;;;;;;;5345758;26;20012;-60
2024/04/20 10:07:52;;;;;;;7.47;5.00;;;;;;;;;;5347530;26;20007;-60
2024/04/20 10:10:20;;;;;;;8.03;5.00;;;;;;;;;;5347268;26;20010;-61
2024/04/20 10:12:47;;;;;;;6.25;4.80;;;;;;;;;;5347296;26;20338;-60
2024/04/20 10:15:13;;;;;;;6.00;4.03;;;;;;;;;;5345960;26;20378;-60
2024/04/20 10:17:40;;;;;;;9.10;3.67;;;;;;;;;;5345975;26;20025;-59
2024/04/20 10:20:06;;;;;;;7.25;4.50;;;;;;;;;;5347041;26;20450;-60
2024/04/20 10:22:38;;;;;;;10.18;5.32;;;;;;;;;;5347272;26;20008;-61
2024/04/20 10:25:10;;;;;;;5.88;4.53;;;;;;;;;;5347453;26;20348;-61
2024/04/20 10:27:38;;;;;;;4.88;3.85;;;;;;;;;;5346289;26;20434;-60
2024/04/20 10:30:21;;;;;;;9.27;4.43;;;;;;;;;;5346959;26;20004;-61
2024/04/20 10:32:48;;;;;;;7.43;4.30;;;;;;;;;;5347310;26;20532;-61
2024/04/20 10:35:21;;;;;;;8.25;4.05;;;;;;;;;;5346940;26;19997;-61
2024/04/20 10:38:00;;;;;;;5.88;4.13;;;;;;;;;;5346790;26;20030;-61
2024/04/20 10:40:32;;;;;;;5.97;4.80;;;;;;;;;;5346737;26;20034;-61
2024/04/20 10:43:12;;;;;;;7.32;4.45;;;;;;;;;;5346851;26;20007;-62
2024/04/20 10:45:42;;;;;;;5.10;4.30;;;;;;;;;;5347131;26;20001;-61
2024/04/20 10:48:11;;;;;;;8.45;4.18;;;;;;;;;;5427170;21;20015;-62
2024/04/20 10:50:37;;;;;;;7.28;4.28;;;;;;;;;;5414951;26;20006;-53
2024/04/20 10:53:06;;;;;;;6.68;4.95;;;;;;;;;;5415253;26;20071;-62
2024/04/20 10:55:32;;;;;;;5.32;4.55;;;;;;;;;;5415196;26;20004;-65
2024/04/20 10:57:59;;;;;;;4.90;4.10;;;;;;;;;;5402195;26;20012;-63
2024/04/20 11:00:25;;;;;;;9.70;4.27;;;;;;;;;;5380497;26;20468;-63
2024/04/20 11:02:55;;;;;;;7.20;4.43;;;;;;;;;;5379670;26;20351;-62
2024/04/20 11:05:21;;;;;;;10.55;4.22;;;;;;;;;;5380734;26;20011;-62
2024/04/20 11:07:57;;;;;;;6.03;4.35;;;;;;;;;;5370759;26;20001;-62
2024/04/20 11:10:23;;;;;;;6.90;4.10;;;;;;;;;;5366215;26;20000;-62
2024/04/20 11:12:59;;;;;;;6.13;5.13;;;;;;;;;;5377144;26;20032;-62
2024/04/20 11:15:25;;;;;;;10.05;4.55;;;;;;;;;;5360288;26;19996;-63
2024/04/20 11:17:51;;;;;;;6.47;5.03;;;;;;;;;;5364413;26;20004;-64
2024/04/20 11:20:17;;;;;;;6.95;5.50;;;;;;;;;;5376661;26;20028;-63
2024/04/20 11:22:44;;;;;;;6.63;5.25;;;;;;;;;;5358780;26;20011;-63
2024/04/20 11:25:10;;;;;;;8.52;5.22;;;;;;;;;;5377961;26;20506;-63
2024/04/20 11:27:36;;;;;;;8.00;4.38;;;;;;;;;;5355727;26;20382;-62
2024/04/20 11:30:03;;;;;;;6.97;4.67;;;;;;;;;;5366301;26;20083;-62
2024/04/20 11:32:29;;;;;;;7.85;4.13;;;;;;;;;;5344320;26;20235;-64
2024/04/20 11:34:56;;;;;;;4.20;3.37;;;;;;;;;;5346675;26;19996;-64
2024/04/20 11:37:22;;;;;;;6.43;3.63;;;;;;;;;;5361861;26;20015;-62
2024/04/20 11:39:48;;;;;;;13.27;3.97;;;;;;;;;;5355269;26;19997;-62
2024/04/20 11:42:17;;;;;;;6.10;4.32;;;;;;;;;;5353970;26;20005;-63
2024/04/20 11:44:44;;;;;;;6.47;4.60;;;;;;;;;;5366461;26;20011;-63
2024/04/20 11:47:15;;;;;;;10.70;4.83;;;;;;;;;;5348359;26;20655;-62
2024/04/20 11:49:48;;;;;;;8.32;4.68;;;;;;;;;;5343112;26;19997;-62
2024/04/20 11:55:06;;;;;;;4.03;3.38;;;;;;;;;;5379294;26;20073;-63
2024/04/20 11:57:33;;;;;;;5.47;3.87;;;;;;;;;;5362944;26;20001;-63
2024/04/20 12:00:05;;;;;;;4.70;3.20;;;;;;;;;;5344414;26;20001;-62
2024/04/20 12:02:39;;;;;;;6.43;3.67;;;;;;;;;;5362890;26;20397;-64
2024/04/20 12:05:05;;;;;;;5.75;3.67;;;;;;;;;;5344198;26;20078;-63
2024/04/20 12:07:35;;;;;;;5.47;4.03;;;;;;;;;;5348478;26;20381;-62
2024/04/20 12:10:01;;;;;;;4.82;3.50;;;;;;;;;;5345575;26;20005;-62
2024/04/20 12:12:27;;;;;;;3.80;2.50;;;;;;;;;;5351948;26;20004;-62
2024/04/20 12:14:54;;;;;;;2.88;2.55;;;;;;;;;;5369078;26;20251;-63
2024/04/20 12:17:20;;;;;;;;;;;;;;;;;;5377487;26;20070;-62
2024/04/20 12:19:47;;;;;;;5.63;2.13;;;;;;;;;;5360981;26;19999;-63
2024/04/20 12:22:14;;;;;;;6.33;3.00;;;;;;;;;;5345842;26;20005;-62
2024/04/20 12:24:40;;;;;;;3.85;2.90;;;;;;;;;;5343891;26;20330;-62
2024/04/20 12:27:07;;;;;;;5.50;3.40;;;;;;;;;;5345603;26;20001;-64
2024/04/20 12:29:33;;;;;;;4.97;3.33;;;;;;;;;;5355406;26;20001;-63
2024/04/20 12:32:03;;;;;;;5.50;3.10;;;;;;;;;;5348992;26;20000;-62
2024/04/20 12:34:30;;;;;;;4.10;3.47;;;;;;;;;;5343624;26;20009;-62
2024/04/20 12:36:56;;;;;;;4.35;2.92;;;;;;;;;;5345655;26;20001;-63
2024/04/20 12:39:22;;;;;;;4.05;2.08;;;;;;;;;;5341680;26;20019;-64
2024/04/20 12:41:48;;;;;;;3.67;2.10;;;;;;;;;;5352843;26;20012;-64
2024/04/20 12:44:15;;;;;;;3.23;2.17;;;;;;;;;;5341714;26;20008;-63
2024/04/20 12:46:41;;;;;;;1.10;1.00;;;;;;;;;;5364275;26;20235;-63
2024/04/20 12:49:07;;;;;;;2.58;1.60;;;;;;;;;;5375677;26;20023;-63
2024/04/20 12:51:34;;;;;;;2.33;1.53;;;;;;;;;;5367290;26;20461;-63
2024/04/20 12:54:00;;;;;;;2.83;1.67;;;;;;;;;;5343468;26;20007;-63
2024/04/20 12:56:26;;;;;;;3.17;1.57;;;;;;;;;;5345682;26;20113;-63
2024/04/20 12:58:52;;;;;;;2.42;1.98;;;;;;;;;;5355981;26;20015;-62
2024/04/20 13:01:18;;;;;;;5.88;2.08;;;;;;;;;;5351693;26;20381;-62
2024/04/20 13:03:45;;;;;;;4.83;2.00;;;;;;;;;;5346334;26;20012;-64
2024/04/20 13:06:11;;;;;;;3.70;1.08;;;;;;;;;;5375476;26;20011;-64
2024/04/20 13:08:37;;;;;;;1.80;0.50;;;;;;;;;;5377721;26;20671;-64
2024/04/20 13:11:03;;;;;;;3.33;0.40;;;;;;;;;;5374082;26;20350;-63
2024/04/20 13:13:29;;;;;;;2.78;0.50;;;;;;;;;;5375429;26;20012;-64
2024/04/20 13:15:57;;;;;;;11.40;0.60;;;;;;;;;;5379174;26;20488;-64
2024/04/20 13:18:23;;;;;;;5.40;0.73;;;;;;;;;;5378091;26;20065;-54
2024/04/20 13:20:56;;;;;;;3.50;0.30;;;;;;;;;;5379943;26;20006;-53
2024/04/20 13:23:23;;;;;;;4.05;0.57;;;;;;;;;;5383106;26;20010;-55
2024/04/20 13:25:51;;;;;;;3.10;0.40;;;;;;;;;;5370731;26;20039;-52
2024/04/20 13:28:22;;;;;;;0.50;0.40;;;;;;;;;;5347974;26;20445;-55
2024/04/20 13:30:52;;;;;;;2.13;0.80;;;;;;;;;;5360001;26;20065;-55
2024/04/20 13:33:18;;;;;;;2.13;0.52;;;;;;;;;;5381272;26;20069;-53
2024/04/20 13:35:57;;;;;;;2.77;1.00;;;;;;;;;;5346187;26;20346;-54
2024/04/20 13:38:24;;;;;;;1.73;0.52;;;;;;;;;;5349634;26;20285;-53
2024/04/20 13:40:57;;;;;;;2.30;0.60;;;;;;;;;;5372422;26;20333;-53
2024/04/20 13:43:23;;;;;;;3.92;1.27;;;;;;;;;;5347593;26;20002;-55
2024/04/20 13:45:50;;;;;;;2.50;0.93;;;;;;;;;;5357815;26;20012;-53
2024/04/20 13:48:16;;;;;;;3.28;0.60;;;;;;;;;;5375367;26;20454;-56
2024/04/20 13:50:42;;;;;;;1.13;0.70;;;;;;;;;;5347238;26;20000;-54
2024/04/20 13:53:12;;;;;;;0.90;0.60;;;;;;;;;;5375399;26;20004;-57
2024/04/20 13:55:39;;;;;;;1.42;0.68;;;;;;;;;;5379572;26;20010;-55
2024/04/20 13:58:05;;;;;;;2.42;1.33;;;;;;;;;;5381286;26;20004;-56
2024/04/20 14:00:31;;;;;;;2.77;1.20;;;;;;;;;;5374725;26;20010;-64
2024/04/20 14:02:57;;;;;;;1.48;0.63;;;;;;;;;;5350316;26;20365;-63
2024/04/20 14:05:24;;;;;;;3.17;0.60;;;;;;;;;;5373502;26;20000;-63
2024/04/20 14:07:51;;;;;;;1.90;0.43;;;;;;;;;;5366961;26;20015;-65
2024/04/20 14:10:18;;;;;;;6.53;0.90;;;;;;;;;;5345682;26;20458;-63
2024/04/20 14:12:44;;;;;;;0.70;0.40;;;;;;;;;;5362774;26;20007;-62
2024/04/20 14:15:11;;;;;;;2.10;0.53;;;;;;;;;;5382088;26;19996;-64
2024/04/20 14:17:39;;;;;;;1.05;0.70;;;;;;;;;;5364640;26;20337;-61
2024/04/20 14:20:13;;;;;;;2.83;0.40;;;;;;;;;;5381487;26;20000;-61
2024/04/20 14:22:39;;;;;;;1.02;0.50;;;;;;;;;;5366293;26;19996;-63
2024/04/20 14:25:06;;;;;;;2.03;1.13;;;;;;;;;;5398302;26;19995;-61
2024/04/20 14:27:32;;;;;;;1.33;0.77;;;;;;;;;;5400053;26;19996;-61
2024/04/20 14:29:59;;;;;;;5.47;1.45;;;;;;;;;;5378414;26;20444;-63
2024/04/20 14:32:25;;;;;;;1.10;1.00;;;;;;;;;;5348603;26;20322;-64
2024/04/20 14:34:52;;;;;;;2.50;1.50;;;;;;;;;;5367121;26;20000;-61
2024/04/20 14:37:18;;;;;;;3.25;1.40;;;;;;;;;;5378544;26;19996;-60
2024/04/20 14:39:44;;;;;;;2.77;1.37;;;;;;;;;;5365419;26;20004;-57
2024/04/20 14:42:10;;;;;;;1.33;1.20;;;;;;;;;;5359420;26;19998;-61
2024/04/20 14:44:37;;;;;;;2.47;1.73;;;;;;;;;;5376622;26;20004;-64